Time;durP1;ratioP1;P1;durP2;ratioP2;P2;SDS_P1;SDS_P2;PMS_P1;PMS_P2;Temp;Humidity;BMP_temperature;BMP_pressure;BME280_temperature;BME280_humidity;BME280_pressure;Samples;Min_cycle;Max_cycle;Signal;HPM_P1;HPM_P2
2021/07/27 04:00:16;;;;;;;10.60;9.50;;;17.30;99.90;;;;;;6104777;23;22258;31
2021/07/27 04:02:43;;;;;;;11.37;9.90;;;17.40;99.90;;;;;;4992818;28;20465;-66
2021/07/27 04:05:10;;;;;;;10.20;9.20;;;17.50;99.90;;;;;;4995527;28;20461;-66
2021/07/27 04:07:37;;;;;;;10.20;9.20;;;17.50;99.90;;;;;;4995692;28;20453;-66
2021/07/27 04:10:05;;;;;;;10.57;9.57;;;17.60;99.90;;;;;;4995066;28;20458;-66
2021/07/27 04:12:32;;;;;;;12.53;9.23;;;17.70;99.90;;;;;;4994304;28;20473;-66
2021/07/27 04:14:59;;;;;;;13.67;9.57;;;17.70;99.90;;;;;;4994494;28;20458;-66
2021/07/27 04:17:27;;;;;;;10.57;9.57;;;17.80;99.90;;;;;;4998320;28;20465;-66
2021/07/27 04:19:54;;;;;;;11.57;10.37;;;17.80;99.90;;;;;;4998910;28;20478;-66
2021/07/27 04:22:21;;;;;;;10.73;9.40;;;17.80;99.90;;;;;;4997906;28;20470;-66
2021/07/27 04:24:47;;;;;;;12.33;9.20;;;17.80;99.90;;;;;;4998226;28;20457;-67
2021/07/27 04:27:15;;;;;;;13.10;10.17;;;17.80;99.90;;;;;;4998071;28;20927;-67
2021/07/27 04:29:41;;;;;;;11.70;9.93;;;17.90;99.90;;;;;;4998049;28;20453;-66
2021/07/27 04:32:08;;;;;;;11.43;10.33;;;17.90;99.90;;;;;;4998049;28;20478;-66
2021/07/27 04:34:36;;;;;;;11.53;10.40;;;17.90;99.90;;;;;;4997852;28;20461;-66
2021/07/27 04:37:03;;;;;;;14.73;10.10;;;17.90;99.90;;;;;;4999085;28;20465;-66
2021/07/27 04:39:30;;;;;;;12.10;10.53;;;17.90;99.90;;;;;;4997880;28;20477;-66
2021/07/27 04:41:56;;;;;;;10.77;9.87;;;17.90;99.90;;;;;;4998067;28;20532;-66
2021/07/27 04:44:23;;;;;;;10.73;9.77;;;18.00;99.90;;;;;;4997778;28;20457;-66
2021/07/27 04:46:50;;;;;;;11.77;10.50;;;18.00;99.90;;;;;;4997832;28;20454;-66
2021/07/27 04:49:16;;;;;;;17.00;11.50;;;18.00;99.90;;;;;;4997643;28;20504;-67
2021/07/27 04:51:44;;;;;;;14.30;10.87;;;18.10;99.90;;;;;;4997497;28;20473;-66
2021/07/27 04:54:15;;;;;;;14.50;10.47;;;18.10;99.90;;;;;;4997791;28;20454;-66
2021/07/27 04:56:42;;;;;;;13.03;10.73;;;18.20;99.90;;;;;;4999280;28;20442;-66
2021/07/27 04:59:09;;;;;;;12.23;11.13;;;18.10;99.90;;;;;;4999187;28;20481;-66
2021/07/27 05:01:39;;;;;;;11.70;10.60;;;18.10;99.90;;;;;;4998847;28;20524;-66
2021/07/27 05:04:07;;;;;;;14.03;11.80;;;18.10;99.90;;;;;;4998451;28;20962;-66
2021/07/27 05:06:34;;;;;;;13.27;11.10;;;18.00;99.90;;;;;;4998715;28;20808;-66
2021/07/27 05:09:02;;;;;;;14.20;11.60;;;18.00;99.90;;;;;;4997306;28;20461;-66
2021/07/27 05:11:29;;;;;;;14.93;11.47;;;17.90;99.90;;;;;;4997449;28;20477;-66
2021/07/27 05:13:56;;;;;;;13.10;11.40;;;17.90;99.90;;;;;;4997168;28;20915;-66
2021/07/27 05:16:23;;;;;;;13.83;12.50;;;17.80;99.90;;;;;;4997535;28;20461;-67
2021/07/27 05:18:50;;;;;;;16.17;10.90;;;17.80;99.90;;;;;;4997347;28;20501;-66
2021/07/27 05:21:17;;;;;;;20.30;11.60;;;17.80;99.90;;;;;;4997410;28;20478;-66
2021/07/27 05:23:43;;;;;;;12.53;11.20;;;17.80;99.90;;;;;;4997224;28;20442;-66
2021/07/27 05:26:11;;;;;;;12.63;11.43;;;17.80;99.90;;;;;;4997534;28;20446;-66
2021/07/27 05:28:38;;;;;;;11.97;10.80;;;17.90;99.90;;;;;;4996323;28;20465;-66
2021/07/27 05:31:06;;;;;;;10.67;9.67;;;18.00;99.90;;;;;;4996806;28;20481;-66
2021/07/27 05:33:33;;;;;;;14.27;9.70;;;18.20;99.90;;;;;;4996668;28;20938;-66
2021/07/27 05:35:59;;;;;;;9.83;8.40;;;18.40;99.90;;;;;;4996906;28;20951;-66
2021/07/27 05:38:26;;;;;;;10.13;9.13;;;18.50;99.90;;;;;;4998394;28;20446;-66
2021/07/27 05:40:54;;;;;;;12.10;9.30;;;18.50;99.90;;;;;;4997887;28;20486;-66
2021/07/27 05:43:22;;;;;;;10.10;9.20;;;18.60;99.90;;;;;;4997558;28;21001;-66
2021/07/27 05:45:49;;;;;;;9.37;8.50;;;18.80;99.90;;;;;;4997995;28;20458;-66
2021/07/27 05:48:16;;;;;;;9.40;8.13;;;19.00;99.90;;;;;;4996656;28;20469;-66
2021/07/27 05:50:43;;;;;;;9.20;8.40;;;19.20;99.90;;;;;;4996542;28;20472;-67
2021/07/27 05:53:09;;;;;;;13.00;9.30;;;19.30;99.90;;;;;;4996802;28;20489;-66
2021/07/27 05:55:36;;;;;;;9.73;8.90;;;19.50;99.90;;;;;;4996531;28;20481;-67
2021/07/27 05:58:03;;;;;;;14.23;8.90;;;19.50;99.90;;;;;;4996589;28;20454;-66
2021/07/27 06:00:35;;;;;;;10.67;8.83;;;19.60;99.90;;;;;;4995826;28;20843;-66
2021/07/27 06:03:03;;;;;;;10.50;9.03;;;19.70;99.90;;;;;;4995643;28;20903;-66
2021/07/27 06:05:30;;;;;;;10.47;9.57;;;19.70;99.90;;;;;;4995809;28;20938;-66
2021/07/27 06:07:57;;;;;;;9.53;8.73;;;19.70;99.90;;;;;;4996591;28;20461;-66
2021/07/27 06:10:23;;;;;;;10.00;9.00;;;19.70;99.90;;;;;;4996242;28;20453;-66
2021/07/27 06:12:50;;;;;;;8.97;8.27;;;19.80;99.90;;;;;;4996377;28;20449;-67
2021/07/27 06:15:17;;;;;;;9.63;8.60;;;20.10;99.90;;;;;;4995749;28;20942;-67
2021/07/27 06:17:45;;;;;;;8.77;8.07;;;20.30;99.90;;;;;;4996010;28;20454;-67
2021/07/27 06:20:12;;;;;;;9.30;8.50;;;20.50;99.90;;;;;;4995776;28;20484;-67
2021/07/27 06:22:39;;;;;;;10.80;8.40;;;20.70;99.90;;;;;;4995902;28;20961;-66
2021/07/27 06:25:10;;;;;;;9.47;8.40;;;21.00;99.90;;;;;;4996224;28;20461;-65
2021/07/27 06:27:37;;;;;;;9.90;7.20;;;21.10;99.90;;;;;;4995908;28;20484;-66
2021/07/27 06:30:06;;;;;;;8.60;7.73;;;21.30;99.90;;;;;;4996013;28;20457;-65
2021/07/27 06:32:33;;;;;;;11.13;8.20;;;21.60;99.90;;;;;;4995631;28;20517;-66
2021/07/27 06:35:01;;;;;;;9.40;8.43;;;21.80;99.90;;;;;;4995592;28;20454;-67
2021/07/27 06:37:28;;;;;;;10.70;7.67;;;21.70;99.90;;;;;;4995699;28;20465;-66
2021/07/27 06:39:54;;;;;;;10.87;9.17;;;21.80;99.90;;;;;;4995367;28;20488;-66
2021/07/27 06:42:21;;;;;;;11.30;9.03;;;21.80;99.90;;;;;;4995661;28;20477;-66
2021/07/27 06:44:48;;;;;;;8.67;7.63;;;21.90;99.90;;;;;;4995772;28;20458;-67
2021/07/27 06:47:14;;;;;;;8.97;8.03;;;21.90;99.90;;;;;;4997481;28;20453;-66
2021/07/27 06:49:41;;;;;;;8.97;8.17;;;21.90;99.90;;;;;;5005177;28;20454;-66
2021/07/27 06:52:09;;;;;;;9.80;8.90;;;22.00;99.90;;;;;;5008423;28;20469;-67
2021/07/27 06:54:36;;;;;;;9.53;8.60;;;21.90;99.90;;;;;;5007840;28;20461;-67
2021/07/27 06:57:03;;;;;;;9.10;8.30;;;21.90;99.90;;;;;;4998407;28;20454;-67
2021/07/27 06:59:29;;;;;;;9.20;8.30;;;21.90;99.90;;;;;;4997527;28;20477;-66
2021/07/27 07:01:56;;;;;;;8.70;7.80;;;22.00;99.90;;;;;;4998234;28;20488;-67
2021/07/27 07:04:23;;;;;;;9.17;8.27;;;22.30;99.90;;;;;;4999242;28;20521;-66
2021/07/27 07:06:49;;;;;;;12.13;8.63;;;22.90;99.90;;;;;;5010948;28;20442;-67
2021/07/27 07:09:17;;;;;;;8.10;7.23;;;23.50;99.90;;;;;;4999178;28;20461;-65
2021/07/27 07:11:44;;;;;;;7.40;6.67;;;24.20;99.90;;;;;;4995394;28;21037;-65
2021/07/27 07:14:11;;;;;;;8.60;7.20;;;24.90;99.90;;;;;;4994837;28;20977;-65
2021/07/27 07:16:37;;;;;;;9.87;6.70;;;25.50;99.90;;;;;;4995150;28;20453;-67
2021/07/27 07:19:04;;;;;;;8.67;7.70;;;25.60;99.90;;;;;;4994812;28;20461;-66
2021/07/27 07:21:31;;;;;;;7.70;6.93;;;25.60;99.90;;;;;;4994984;28;20470;-66
2021/07/27 07:23:58;;;;;;;8.10;7.40;;;25.80;99.90;;;;;;4994790;28;20461;-66
2021/07/27 07:26:26;;;;;;;7.23;6.70;;;26.20;99.90;;;;;;4994577;28;20954;-66
2021/07/27 07:28:52;;;;;;;9.60;7.10;;;26.70;99.90;;;;;;4994973;28;20453;-66
2021/07/27 07:31:19;;;;;;;8.20;6.40;;;27.30;99.90;;;;;;4994512;28;20470;-66
2021/07/27 07:33:46;;;;;;;7.37;6.70;;;28.00;99.90;;;;;;4994782;28;20481;-66
2021/07/27 07:36:13;;;;;;;7.10;6.50;;;28.50;99.90;;;;;;4994924;28;20517;-66
2021/07/27 07:38:41;;;;;;;7.10;6.53;;;28.70;99.90;;;;;;4994753;28;20817;-66
2021/07/27 07:41:09;;;;;;;8.00;6.67;;;28.60;99.90;;;;;;4994979;28;20488;-66
2021/07/27 07:43:37;;;;;;;7.50;6.80;;;28.70;99.90;;;;;;4994975;28;20457;-66
2021/07/27 07:46:04;;;;;;;8.63;7.17;;;28.80;99.90;;;;;;4994951;28;20438;-66
2021/07/27 07:48:31;;;;;;;7.17;6.47;;;29.00;99.90;;;;;;4994444;28;20973;-66
2021/07/27 07:50:58;;;;;;;7.47;6.77;;;29.40;99.90;;;;;;4994100;28;20470;-66
2021/07/27 07:53:24;;;;;;;7.40;6.60;;;30.00;99.90;;;;;;4995098;28;20453;-66
2021/07/27 07:55:51;;;;;;;6.80;6.10;;;30.40;99.90;;;;;;4994827;28;20453;-66
2021/07/27 07:58:18;;;;;;;7.20;6.60;;;30.70;99.90;;;;;;4994675;28;20441;-66
2021/07/27 08:00:46;;;;;;;6.90;6.30;;;31.20;99.90;;;;;;4994589;28;20489;-67
2021/07/27 08:03:12;;;;;;;6.10;5.53;;;31.50;99.40;;;;;;4994401;28;20469;-66
2021/07/27 08:05:39;;;;;;;10.63;6.50;;;31.30;99.90;;;;;;4994992;28;20828;-66
2021/07/27 08:08:06;;;;;;;6.00;5.40;;;31.60;97.70;;;;;;4994534;28;20865;-66
2021/07/27 08:10:33;;;;;;;6.00;5.47;;;31.80;97.10;;;;;;4994490;28;20465;-66
2021/07/27 08:13:00;;;;;;;5.97;5.57;;;32.20;94.00;;;;;;4994433;28;20489;-66
2021/07/27 08:15:27;;;;;;;5.73;5.23;;;32.20;90.70;;;;;;4995169;28;20445;-66
2021/07/27 08:17:55;;;;;;;6.00;5.57;;;31.50;90.70;;;;;;4994796;28;20462;-66
2021/07/27 08:20:22;;;;;;;5.60;5.20;;;30.90;92.40;;;;;;4994275;28;20478;-67
2021/07/27 08:22:50;;;;;;;5.40;5.00;;;30.70;92.00;;;;;;4994269;28;20450;-66
2021/07/27 08:25:18;;;;;;;6.47;5.97;;;29.60;93.00;;;;;;4994392;28;20458;-66
2021/07/27 08:27:45;;;;;;;7.10;6.47;;;29.90;93.70;;;;;;4994527;28;20801;-66
2021/07/27 08:30:14;;;;;;;7.50;6.90;;;29.90;93.00;;;;;;4994491;28;20460;-66
2021/07/27 08:32:45;;;;;;;7.63;7.03;;;29.80;96.10;;;;;;4994665;28;20512;-67
2021/07/27 08:35:14;;;;;;;8.03;7.33;;;29.70;96.90;;;;;;4994061;28;20953;-67
2021/07/27 08:37:41;;;;;;;7.50;6.90;;;29.40;96.20;;;;;;4994346;28;20508;-66
2021/07/27 08:40:09;;;;;;;6.90;6.20;;;29.00;96.40;;;;;;4994097;28;20986;-67
2021/07/27 08:42:39;;;;;;;6.93;6.43;;;29.30;97.50;;;;;;4994237;28;20529;-66
2021/07/27 08:45:07;;;;;;;6.47;5.97;;;29.60;96.10;;;;;;4994678;28;20457;-67
2021/07/27 08:47:34;;;;;;;6.33;6.00;;;30.20;94.50;;;;;;4994075;28;20511;-67
2021/07/27 08:50:02;;;;;;;6.33;5.77;;;30.40;94.00;;;;;;4994315;28;20438;-67
2021/07/27 08:52:30;;;;;;;6.80;6.10;;;30.70;93.10;;;;;;4994190;28;20478;-67
2021/07/27 08:54:57;;;;;;;6.40;5.90;;;31.10;92.40;;;;;;4994064;28;20453;-67
2021/07/27 08:57:23;;;;;;;5.60;5.20;;;31.80;92.70;;;;;;4993908;28;20453;-67
2021/07/27 08:59:51;;;;;;;6.43;5.60;;;32.10;89.70;;;;;;4993567;28;20939;-67
2021/07/27 09:02:27;;;;;;;6.77;6.27;;;32.30;90.70;;;;;;4993955;28;20492;-67
2021/07/27 09:05:08;;;;;;;6.47;5.93;;;32.50;87.80;;;;;;4997380;28;20445;-67
2021/07/27 09:07:36;;;;;;;6.20;5.67;;;32.30;86.20;;;;;;4997530;28;20442;-67
2021/07/27 09:10:17;;;;;;;6.27;5.67;;;32.60;84.70;;;;;;4997522;28;20453;-67
2021/07/27 09:12:54;;;;;;;6.33;5.80;;;32.80;82.80;;;;;;4997415;28;20442;-67
2021/07/27 09:15:21;;;;;;;7.30;6.60;;;33.10;85.90;;;;;;4997336;28;20453;-67
2021/07/27 09:17:54;;;;;;;6.67;6.07;;;33.50;89.40;;;;;;4996934;28;20902;-67
2021/07/27 09:20:28;;;;;;;6.50;6.00;;;33.40;81.10;;;;;;4996710;28;20970;-67
2021/07/27 09:22:57;;;;;;;6.70;5.93;;;33.70;80.90;;;;;;4997528;28;20456;-67
2021/07/27 09:25:26;;;;;;;8.60;6.13;;;34.00;82.30;;;;;;4997278;28;20464;-67
2021/07/27 09:28:03;;;;;;;5.43;5.13;;;34.60;77.90;;;;;;4997157;28;20457;-67
2021/07/27 09:30:30;;;;;;;6.93;6.43;;;35.20;78.90;;;;;;4996963;28;20857;-67
2021/07/27 09:32:58;;;;;;;6.13;5.73;;;35.70;74.40;;;;;;4997072;28;20464;-67
2021/07/27 09:35:25;;;;;;;6.40;5.90;;;36.20;73.80;;;;;;4996975;28;20453;-67
2021/07/27 09:38:06;;;;;;;6.07;5.67;;;36.00;70.70;;;;;;4996528;28;20914;-67
2021/07/27 09:40:34;;;;;;;5.93;5.53;;;36.10;68.30;;;;;;4996365;28;20965;-67
2021/07/27 09:43:02;;;;;;;6.00;5.60;;;36.30;67.60;;;;;;4996868;28;20512;-68
2021/07/27 09:45:29;;;;;;;5.80;5.30;;;36.40;69.10;;;;;;4996533;28;20458;-67
2021/07/27 09:47:57;;;;;;;6.90;6.50;;;36.50;68.10;;;;;;4996474;28;20458;-67
2021/07/27 09:50:24;;;;;;;6.00;5.40;;;35.70;64.40;;;;;;4996490;28;20946;-67
2021/07/27 09:52:51;;;;;;;6.20;5.80;;;36.10;65.40;;;;;;4996746;28;20476;-68
2021/07/27 09:55:21;;;;;;;6.27;5.73;;;36.50;63.50;;;;;;4996525;28;20453;-66
2021/07/27 09:57:48;;;;;;;6.30;5.90;;;36.50;64.30;;;;;;4996688;28;20445;-67
2021/07/27 10:00:16;;;;;;;6.13;5.77;;;36.30;65.10;;;;;;5008061;28;20469;-68
2021/07/27 10:02:47;;;;;;;6.40;5.87;;;37.10;65.30;;;;;;5014947;28;20438;-66
2021/07/27 10:05:21;;;;;;;6.23;5.73;;;37.20;59.70;;;;;;5000452;28;20549;-67
2021/07/27 10:07:53;;;;;;;6.30;5.90;;;36.20;64.70;;;;;;5000487;28;20492;-68
2021/07/27 10:10:37;;;;;;;7.07;6.57;;;35.30;63.40;;;;;;4996729;28;20938;-67
2021/07/27 10:13:12;;;;;;;5.53;5.17;;;34.30;66.90;;;;;;4995810;28;20492;-68
2021/07/27 10:15:44;;;;;;;7.47;6.53;;;34.20;69.80;;;;;;4996278;28;20540;-68
2021/07/27 10:18:11;;;;;;;5.63;5.10;;;34.80;67.80;;;;;;4996016;28;20460;-68
2021/07/27 10:20:38;;;;;;;6.33;5.87;;;35.10;66.90;;;;;;4995828;28;20932;-68
2021/07/27 10:23:16;;;;;;;6.00;5.60;;;35.70;64.90;;;;;;4996061;28;20508;-68
2021/07/27 10:25:58;;;;;;;7.40;6.80;;;35.70;61.40;;;;;;4995922;28;20455;-68
2021/07/27 10:28:27;;;;;;;8.07;6.57;;;35.50;61.90;;;;;;4995883;28;20477;-68
2021/07/27 10:31:04;;;;;;;5.40;5.10;;;35.00;62.70;;;;;;4996074;28;20481;-67
2021/07/27 10:33:31;;;;;;;6.43;6.03;;;34.60;68.60;;;;;;4995708;28;20441;-68
2021/07/27 10:35:58;;;;;;;14.17;12.77;;;34.40;65.40;;;;;;4995761;28;20453;-68
2021/07/27 10:38:36;;;;;;;5.70;5.30;;;34.30;63.10;;;;;;4995189;28;20983;-68
2021/07/27 10:41:18;;;;;;;7.30;6.60;;;34.00;65.90;;;;;;4995068;28;20485;-68
2021/07/27 10:43:46;;;;;;;7.03;6.57;;;34.00;67.30;;;;;;4995336;28;20957;-68
2021/07/27 10:46:13;;;;;;;8.77;8.07;;;34.20;67.20;;;;;;4995475;28;20830;-67
2021/07/27 10:48:40;;;;;;;6.83;6.33;;;34.20;63.40;;;;;;4995477;28;20528;-67
2021/07/27 10:51:08;;;;;;;6.40;5.90;;;34.10;63.40;;;;;;4995380;28;20470;-67
2021/07/27 10:53:36;;;;;;;6.27;5.87;;;33.80;65.70;;;;;;4994880;28;20497;-68
2021/07/27 10:56:04;;;;;;;6.30;5.90;;;33.90;68.30;;;;;;4995279;28;20457;-68
2021/07/27 10:58:34;;;;;;;6.03;5.53;;;33.90;65.40;;;;;;4995311;28;20453;-68
2021/07/27 11:01:11;;;;;;;6.00;5.60;;;34.10;66.20;;;;;;4995187;28;20485;-67
2021/07/27 11:03:40;;;;;;;6.70;6.20;;;34.20;62.10;;;;;;4995435;28;20441;-67
2021/07/27 11:06:07;;;;;;;6.27;5.60;;;33.90;63.10;;;;;;4995337;28;20493;-67
2021/07/27 11:08:34;;;;;;;6.17;5.60;;;34.20;66.90;;;;;;4995087;28;20971;-66
2021/07/27 11:11:09;;;;;;;6.43;6.03;;;34.50;64.60;;;;;;4995565;28;20481;-66
2021/07/27 11:13:38;;;;;;;6.13;5.63;;;34.70;63.40;;;;;;4995176;28;20464;-65
2021/07/27 11:16:05;;;;;;;6.57;6.07;;;34.70;61.50;;;;;;4994953;28;20453;-66
2021/07/27 11:18:32;;;;;;;6.20;5.70;;;34.20;62.10;;;;;;4994860;28;20823;-66
2021/07/27 11:21:00;;;;;;;6.53;5.83;;;34.00;68.60;;;;;;4994957;28;20493;-67
2021/07/27 11:23:32;;;;;;;6.67;6.07;;;33.30;66.70;;;;;;4994435;28;21012;-68
2021/07/27 11:25:59;;;;;;;6.17;5.70;;;33.60;65.40;;;;;;4994268;28;20458;-67
2021/07/27 11:28:34;;;;;;;6.63;6.17;;;33.50;66.50;;;;;;4994982;28;20453;-66
2021/07/27 11:31:02;;;;;;;6.13;5.67;;;33.30;65.10;;;;;;4994768;28;20473;-66
2021/07/27 11:33:29;;;;;;;6.83;6.43;;;33.10;67.40;;;;;;4995034;28;20485;-66
2021/07/27 11:35:58;;;;;;;5.90;5.43;;;33.10;66.40;;;;;;4994812;28;20441;-66
2021/07/27 11:38:27;;;;;;;7.47;6.90;;;32.90;67.60;;;;;;4994767;28;20481;-66
2021/07/27 11:41:04;;;;;;;6.30;5.70;;;32.60;67.60;;;;;;4994229;28;20477;-66
2021/07/27 11:43:32;;;;;;;5.90;5.40;;;32.30;70.00;;;;;;4994634;28;20445;-66
2021/07/27 11:46:08;;;;;;;5.80;5.30;;;31.80;68.80;;;;;;4994644;28;20489;-66
2021/07/27 11:48:35;;;;;;;7.20;6.50;;;31.50;69.60;;;;;;4994334;28;20899;-66
2021/07/27 11:51:03;;;;;;;5.90;5.50;;;31.30;68.80;;;;;;4994961;28;20488;-66
2021/07/27 11:53:32;;;;;;;6.30;5.80;;;31.00;70.10;;;;;;4994841;28;20461;-66
2021/07/27 11:56:09;;;;;;;8.07;6.87;;;30.40;73.00;;;;;;4994796;28;20454;-65
2021/07/27 11:58:36;;;;;;;7.97;6.43;;;30.20;72.80;;;;;;4994789;28;20442;-65
2021/07/27 12:01:02;;;;;;;6.50;6.00;;;30.30;74.50;;;;;;4994435;28;20481;-66
2021/07/27 12:03:30;;;;;;;7.00;6.13;;;30.30;77.10;;;;;;4994780;28;20476;-66
2021/07/27 12:05:57;;;;;;;7.60;6.90;;;30.30;73.00;;;;;;4994446;28;20457;-66
2021/07/27 12:08:24;;;;;;;6.83;6.33;;;30.10;73.60;;;;;;4994783;28;20495;-66
2021/07/27 12:10:51;;;;;;;6.73;6.20;;;29.90;74.20;;;;;;4995031;28;20473;-66
2021/07/27 12:13:18;;;;;;;7.03;6.33;;;29.70;72.90;;;;;;4995624;28;20468;-66
2021/07/27 12:15:46;;;;;;;7.43;6.10;;;29.80;75.30;;;;;;4994878;28;20438;-66
2021/07/27 12:18:13;;;;;;;6.37;5.97;;;29.90;74.90;;;;;;4994730;28;20481;-66
2021/07/27 12:20:41;;;;;;;5.80;5.30;;;30.00;75.20;;;;;;4994510;28;20477;-66
2021/07/27 12:23:08;;;;;;;5.90;5.40;;;30.00;71.80;;;;;;4994407;28;20450;-66
2021/07/27 12:25:35;;;;;;;7.90;6.27;;;30.10;72.30;;;;;;4995028;28;20453;-67
2021/07/27 12:28:02;;;;;;;6.30;5.80;;;30.30;73.20;;;;;;4994808;28;20473;-67
2021/07/27 12:30:29;;;;;;;6.67;6.17;;;30.30;74.80;;;;;;4994838;28;20454;-66
2021/07/27 12:32:56;;;;;;;5.70;5.30;;;30.40;74.00;;;;;;4994680;28;20446;-67
2021/07/27 12:35:23;;;;;;;6.00;5.57;;;30.30;74.90;;;;;;4994625;28;20461;-66
2021/07/27 12:37:51;;;;;;;6.00;5.60;;;30.20;76.00;;;;;;4997339;28;20464;-66
2021/07/27 12:40:17;;;;;;;6.40;5.80;;;30.10;76.40;;;;;;4998559;28;20444;-66
2021/07/27 12:42:44;;;;;;;7.43;6.87;;;30.20;77.20;;;;;;4998671;28;20482;-66
2021/07/27 12:45:12;;;;;;;6.87;6.07;;;30.50;78.10;;;;;;4998101;28;20480;-66
2021/07/27 12:47:38;;;;;;;6.70;6.10;;;30.60;74.00;;;;;;4998297;28;20460;-67
2021/07/27 12:50:06;;;;;;;6.90;6.20;;;30.70;73.90;;;;;;5000369;28;20456;-66
2021/07/27 12:52:33;;;;;;;10.00;5.73;;;30.50;73.50;;;;;;5002391;28;20470;-66
2021/07/27 12:55:02;;;;;;;6.00;5.50;;;30.60;71.10;;;;;;5001653;28;20461;-66
2021/07/27 12:57:28;;;;;;;6.27;5.80;;;30.60;74.00;;;;;;5001289;28;20464;-67
2021/07/27 12:59:55;;;;;;;5.53;5.23;;;30.70;78.00;;;;;;5001832;28;20445;-67
2021/07/27 13:02:23;;;;;;;6.83;6.00;;;30.80;74.20;;;;;;5007454;28;20496;-67
2021/07/27 13:04:51;;;;;;;6.67;6.13;;;31.00;72.60;;;;;;5007091;28;20488;-67
2021/07/27 13:07:18;;;;;;;5.50;5.20;;;30.90;71.30;;;;;;5009099;28;20457;-67
2021/07/27 13:09:44;;;;;;;5.57;5.17;;;31.10;71.40;;;;;;4999406;28;20973;-67
2021/07/27 13:12:12;;;;;;;6.53;6.07;;;30.70;70.70;;;;;;5001282;28;20477;-67
2021/07/27 13:14:39;;;;;;;5.67;5.23;;;30.40;73.30;;;;;;5004749;28;20477;-67
2021/07/27 13:17:06;;;;;;;5.60;5.30;;;30.00;71.10;;;;;;5006009;28;20458;-67
2021/07/27 13:19:32;;;;;;;8.73;6.47;;;29.80;72.00;;;;;;5010308;28;20931;-66
2021/07/27 13:21:59;;;;;;;6.53;6.03;;;29.50;72.80;;;;;;5009574;28;20481;-67
2021/07/27 13:24:26;;;;;;;5.73;5.30;;;29.10;74.90;;;;;;5005601;28;20461;-67
2021/07/27 13:26:52;;;;;;;6.40;4.90;;;29.20;73.70;;;;;;5005381;28;20457;-68
2021/07/27 13:29:20;;;;;;;5.90;5.50;;;29.30;76.00;;;;;;5007037;28;20449;-67
2021/07/27 13:31:47;;;;;;;5.00;4.70;;;29.60;74.10;;;;;;5008522;28;20474;-67
2021/07/27 13:34:17;;;;;;;5.50;5.00;;;29.90;75.40;;;;;;5011241;28;20460;-67
2021/07/27 13:36:43;;;;;;;5.63;5.13;;;30.00;75.30;;;;;;5009448;28;20452;-67
2021/07/27 13:39:10;;;;;;;5.20;4.90;;;30.10;72.70;;;;;;4999494;28;20457;-67
2021/07/27 13:41:37;;;;;;;6.27;5.77;;;30.10;74.60;;;;;;4997963;28;20489;-67
2021/07/27 13:44:04;;;;;;;5.73;5.40;;;29.90;75.20;;;;;;4997891;28;20461;-67
2021/07/27 13:46:33;;;;;;;5.93;5.53;;;29.80;73.00;;;;;;4997193;28;20460;-65
2021/07/27 13:49:00;;;;;;;4.90;4.50;;;29.80;75.10;;;;;;4996642;28;20472;-67
2021/07/27 13:51:26;;;;;;;4.80;4.50;;;29.80;72.30;;;;;;4997501;28;20481;-67
2021/07/27 13:53:56;;;;;;;5.87;5.37;;;29.70;70.60;;;;;;4997805;28;20450;-67
2021/07/27 13:56:23;;;;;;;4.40;4.10;;;29.70;70.20;;;;;;4997531;28;20558;-67
2021/07/27 13:58:50;;;;;;;5.20;4.80;;;29.70;69.50;;;;;;4997207;28;20462;-67
2021/07/27 14:01:16;;;;;;;5.47;4.97;;;29.90;70.30;;;;;;5000169;28;20489;-67
2021/07/27 14:03:44;;;;;;;5.30;5.00;;;30.00;70.80;;;;;;5001996;28;20462;-67
2021/07/27 14:06:11;;;;;;;5.53;5.07;;;30.10;72.50;;;;;;5001275;28;20454;-67
2021/07/27 14:08:38;;;;;;;5.97;4.67;;;30.20;71.70;;;;;;5001800;28;20457;-67
2021/07/27 14:11:05;;;;;;;4.97;4.67;;;30.20;71.80;;;;;;5000740;28;20994;-67
2021/07/27 14:13:31;;;;;;;5.20;4.80;;;30.10;71.80;;;;;;5001566;28;20450;-67
2021/07/27 14:15:59;;;;;;;5.30;4.80;;;29.90;70.30;;;;;;5003900;28;20460;-67
2021/07/27 14:18:26;;;;;;;5.00;4.70;;;30.00;70.80;;;;;;5003810;28;21012;-67
2021/07/27 14:20:54;;;;;;;4.10;3.90;;;29.90;69.80;;;;;;5004417;28;20473;-66
2021/07/27 14:23:20;;;;;;;4.50;4.30;;;29.90;69.80;;;;;;5004680;28;20489;-66
2021/07/27 14:25:47;;;;;;;4.50;4.30;;;29.80;70.60;;;;;;5005201;28;20453;-67
2021/07/27 14:28:14;;;;;;;4.73;4.20;;;29.80;70.00;;;;;;5004626;28;20458;-67
2021/07/27 14:30:40;;;;;;;4.60;4.20;;;29.70;71.20;;;;;;5003159;28;20500;-67
2021/07/27 14:33:09;;;;;;;5.10;4.80;;;29.70;71.80;;;;;;5003921;28;20473;-68
2021/07/27 14:35:36;;;;;;;4.80;4.50;;;29.80;73.20;;;;;;4998942;28;20449;-65
2021/07/27 14:38:05;;;;;;;5.17;4.87;;;29.70;71.60;;;;;;4996867;28;20457;-66
2021/07/27 14:40:33;;;;;;;4.80;4.50;;;29.50;71.90;;;;;;4996220;28;20438;-66
2021/07/27 14:43:00;;;;;;;5.40;5.10;;;29.50;73.30;;;;;;4996036;28;20812;-66
2021/07/27 14:45:27;;;;;;;4.77;4.47;;;29.50;72.80;;;;;;4995532;28;20848;-67
2021/07/27 14:47:53;;;;;;;5.30;5.00;;;29.50;71.90;;;;;;4995739;28;20458;-66
2021/07/27 14:50:21;;;;;;;5.30;4.90;;;29.50;70.80;;;;;;4995782;28;20441;-67
2021/07/27 14:52:48;;;;;;;5.10;4.60;;;29.40;73.10;;;;;;4995548;28;20953;-66
2021/07/27 14:55:16;;;;;;;6.03;5.50;;;29.50;73.70;;;;;;4996379;28;20460;-66
2021/07/27 14:57:42;;;;;;;5.20;4.70;;;29.60;73.00;;;;;;4996181;28;20468;-66
2021/07/27 15:00:10;;;;;;;5.80;5.30;;;29.50;72.70;;;;;;4995873;28;20449;-66
2021/07/27 15:02:37;;;;;;;5.83;5.40;;;29.20;73.00;;;;;;4994692;28;20565;-66
2021/07/27 15:05:04;;;;;;;6.10;5.60;;;29.10;74.70;;;;;;4995446;28;20442;-66
2021/07/27 15:07:31;;;;;;;5.63;5.13;;;29.10;73.50;;;;;;4995046;28;20480;-66
2021/07/27 15:09:58;;;;;;;6.30;5.90;;;29.20;74.60;;;;;;4995012;28;20821;-66
2021/07/27 15:12:26;;;;;;;5.53;5.13;;;29.40;73.80;;;;;;4994842;28;20470;-66
2021/07/27 15:14:53;;;;;;;5.13;4.83;;;29.40;74.80;;;;;;4994974;28;20512;-67
2021/07/27 15:17:20;;;;;;;6.27;5.80;;;29.30;74.30;;;;;;4994587;28;20929;-66
2021/07/27 15:19:46;;;;;;;5.90;5.50;;;29.20;75.40;;;;;;4995031;28;20441;-66
2021/07/27 15:22:13;;;;;;;5.40;5.00;;;29.20;77.30;;;;;;4995205;28;20486;-66
2021/07/27 15:24:40;;;;;;;6.43;6.00;;;29.20;75.30;;;;;;4995810;28;20465;-66
2021/07/27 15:27:07;;;;;;;6.77;6.17;;;29.30;76.80;;;;;;4995488;28;20818;-66
2021/07/27 15:29:35;;;;;;;5.37;5.00;;;29.50;76.50;;;;;;4996522;28;20458;-66
2021/07/27 15:32:02;;;;;;;6.80;6.30;;;29.40;77.00;;;;;;4996256;28;20476;-66
2021/07/27 15:34:28;;;;;;;6.27;5.80;;;29.40;77.00;;;;;;4995690;28;20493;-66
2021/07/27 15:36:55;;;;;;;6.23;5.83;;;29.40;77.70;;;;;;4995747;28;20458;-66
2021/07/27 15:39:22;;;;;;;6.40;5.90;;;29.20;74.90;;;;;;4995287;28;20466;-66
2021/07/27 15:41:50;;;;;;;6.13;5.73;;;29.20;76.40;;;;;;4994919;28;20462;-66
2021/07/27 15:44:17;;;;;;;6.67;6.17;;;29.20;76.40;;;;;;4994309;28;20856;-66
2021/07/27 15:46:46;;;;;;;7.30;6.60;;;29.10;76.70;;;;;;4995034;28;20461;-66
2021/07/27 15:49:13;;;;;;;5.90;5.50;;;29.10;76.10;;;;;;4994416;28;20464;-66
2021/07/27 15:51:39;;;;;;;7.53;6.30;;;28.90;76.40;;;;;;4994539;28;20478;-66
2021/07/27 15:54:06;;;;;;;6.70;6.30;;;29.00;78.90;;;;;;4995195;28;20529;-66
2021/07/27 15:56:33;;;;;;;6.33;5.70;;;29.00;79.70;;;;;;4995160;28;20468;-65
2021/07/27 15:59:00;;;;;;;7.27;6.67;;;29.00;79.50;;;;;;4994494;28;20468;-66
2021/07/27 16:01:26;;;;;;;6.10;5.70;;;29.00;80.30;;;;;;4994307;28;20855;-68
2021/07/27 16:03:54;;;;;;;7.47;6.77;;;29.00;78.90;;;;;;4994666;28;20485;-67
2021/07/27 16:06:21;;;;;;;7.00;6.57;;;28.90;80.80;;;;;;4994958;28;20466;-67
2021/07/27 16:08:48;;;;;;;6.87;6.37;;;28.90;82.40;;;;;;4995632;28;20458;-68
2021/07/27 16:11:16;;;;;;;7.57;6.03;;;28.90;80.80;;;;;;4995441;28;21013;-67
2021/07/27 16:13:43;;;;;;;6.93;6.37;;;28.80;80.50;;;;;;4999268;28;20457;-67
2021/07/27 16:16:10;;;;;;;6.50;5.77;;;28.70;81.90;;;;;;4999025;28;20457;-67
2021/07/27 16:18:36;;;;;;;7.87;7.07;;;28.60;81.60;;;;;;4999270;28;20823;-67
2021/07/27 16:21:04;;;;;;;6.83;6.40;;;28.60;81.10;;;;;;4999123;28;20470;-67
2021/07/27 16:23:31;;;;;;;7.13;6.30;;;28.60;82.60;;;;;;4998476;28;20979;-67
2021/07/27 16:25:58;;;;;;;6.60;5.93;;;28.60;82.50;;;;;;4999156;28;20460;-67
2021/07/27 16:28:25;;;;;;;6.30;5.83;;;28.40;81.20;;;;;;4998585;28;20454;-67
2021/07/27 16:30:52;;;;;;;6.53;6.13;;;28.40;82.80;;;;;;4998577;28;20477;-68
2021/07/27 16:33:19;;;;;;;6.47;6.03;;;28.30;83.60;;;;;;4998130;28;20941;-68
2021/07/27 16:35:45;;;;;;;7.17;6.50;;;28.20;83.00;;;;;;4998716;28;20453;-66
2021/07/27 16:38:13;;;;;;;7.63;6.70;;;28.20;84.30;;;;;;4998459;28;20947;-68
2021/07/27 16:40:40;;;;;;;6.67;6.07;;;28.10;83.20;;;;;;4997995;28;20478;-66
2021/07/27 16:43:07;;;;;;;7.47;6.83;;;28.10;84.30;;;;;;4999329;28;20473;-67
2021/07/27 16:45:34;;;;;;;7.00;6.40;;;28.10;83.00;;;;;;5005873;28;20464;-68